Time;durP1;ratioP1;P1;durP2;ratioP2;P2;SDS_P1;SDS_P2;PMS_P1;PMS_P2;Temp;Humidity;BMP_temperature;BMP_pressure;BME280_temperature;BME280_humidity;BME280_pressure;Samples;Min_cycle;Max_cycle;Signal;HPM_P1;HPM_P2
2023/01/25 00:00:05;;;;;;;0.30;0.30;;;2.10;99.90;;;;;;5095261;28;20910;-80
2023/01/25 00:02:32;;;;;;;1.40;0.57;;;2.10;99.90;;;;;;5095285;28;20453;-79
2023/01/25 00:04:59;;;;;;;2.00;0.70;;;2.10;99.90;;;;;;5095103;28;20475;-80
2023/01/25 00:07:27;;;;;;;1.33;0.80;;;2.10;99.90;;;;;;5095038;28;20486;-79
2023/01/25 00:09:54;;;;;;;1.07;1.07;;;2.10;99.90;;;;;;5095083;28;20467;-80
2023/01/25 00:12:20;;;;;;;0.77;0.47;;;2.10;99.90;;;;;;5095068;28;20437;-80
2023/01/25 00:14:47;;;;;;;1.37;0.50;;;2.10;99.90;;;;;;5094625;28;20507;-80
2023/01/25 00:17:14;;;;;;;0.77;0.77;;;2.00;99.90;;;;;;5094607;28;20956;-80
2023/01/25 00:19:40;;;;;;;0.40;0.40;;;2.00;99.90;;;;;;5094667;28;20783;-80
2023/01/25 00:22:07;;;;;;;1.33;0.80;;;2.10;99.90;;;;;;5094529;28;20452;-80
2023/01/25 00:24:35;;;;;;;2.40;2.20;;;2.00;99.90;;;;;;5094415;28;20449;-79
2023/01/25 00:27:02;;;;;;;1.07;1.07;;;2.10;99.90;;;;;;5094718;28;20476;-80
2023/01/25 00:29:29;;;;;;;3.07;0.70;;;2.10;99.90;;;;;;5094465;28;20952;-79
2023/01/25 00:32:07;;;;;;;4.90;1.00;;;2.10;99.90;;;;;;5094611;28;20441;-79
2023/01/25 00:34:48;;;;;;;0.40;0.40;;;2.00;99.90;;;;;;5094591;28;20633;-80
2023/01/25 00:37:28;;;;;;;0.80;0.80;;;2.00;99.90;;;;;;5094615;28;20425;-80
2023/01/25 00:39:57;;;;;;;0.90;0.90;;;2.10;99.90;;;;;;5094501;28;20444;-80
2023/01/25 00:42:23;;;;;;;1.13;0.60;;;2.10;99.90;;;;;;5094462;28;20445;-79
2023/01/25 00:44:50;;;;;;;0.63;0.63;;;2.10;99.90;;;;;;5094282;28;20447;-80
2023/01/25 00:47:17;;;;;;;2.43;0.73;;;2.10;99.90;;;;;;5094264;28;20491;-80
2023/01/25 00:49:45;;;;;;;0.40;0.40;;;2.10;99.90;;;;;;5094279;28;20440;-80
2023/01/25 00:52:12;;;;;;;0.37;0.37;;;2.10;99.90;;;;;;5094256;28;20876;-80
2023/01/25 00:54:39;;;;;;;0.80;0.80;;;2.10;99.90;;;;;;5094169;28;20452;-80
2023/01/25 00:57:08;;;;;;;0.63;0.63;;;2.10;99.90;;;;;;5093862;28;20943;-80
2023/01/25 00:59:35;;;;;;;1.10;1.10;;;2.10;99.90;;;;;;5093773;28;20940;-79
2023/01/25 01:02:02;;;;;;;0.30;0.30;;;2.10;99.90;;;;;;5093789;28;20455;-80
2023/01/25 01:04:29;;;;;;;2.33;2.23;;;2.10;99.90;;;;;;5094027;28;20444;-80
2023/01/25 01:06:56;;;;;;;0.50;0.50;;;2.10;99.90;;;;;;5093937;28;20465;-80
2023/01/25 01:09:23;;;;;;;0.97;0.40;;;2.10;99.90;;;;;;5094040;28;20468;-80
2023/01/25 01:11:50;;;;;;;0.40;0.30;;;2.10;99.90;;;;;;5093923;28;20452;-80
2023/01/25 01:14:19;;;;;;;0.80;0.80;;;2.10;99.90;;;;;;5093430;28;20471;-79
2023/01/25 01:16:46;;;;;;;1.47;0.57;;;2.10;99.90;;;;;;5093862;28;20559;-79
2023/01/25 01:19:13;;;;;;;0.63;0.50;;;2.10;99.90;;;;;;5093531;28;20436;-79
2023/01/25 01:21:40;;;;;;;2.77;1.67;;;2.10;99.90;;;;;;5093809;28;20449;-79
2023/01/25 01:24:08;;;;;;;0.40;0.40;;;2.10;99.90;;;;;;5093467;28;20455;-79
2023/01/25 01:26:35;;;;;;;1.57;1.47;;;2.00;99.90;;;;;;5093669;28;20479;-80
2023/01/25 01:29:01;;;;;;;1.57;1.47;;;2.00;99.90;;;;;;5093309;28;20481;-80
2023/01/25 01:31:29;;;;;;;0.50;0.50;;;2.10;99.90;;;;;;5093636;28;20449;-80
2023/01/25 01:33:58;;;;;;;0.80;0.60;;;2.00;99.90;;;;;;5093507;28;20449;-80
2023/01/25 01:36:27;;;;;;;4.73;0.70;;;2.10;99.90;;;;;;5092357;28;20471;-79
2023/01/25 01:38:54;;;;;;;0.93;0.93;;;2.20;99.90;;;;;;5093502;28;20448;-80
2023/01/25 01:41:21;;;;;;;0.30;0.30;;;2.10;99.90;;;;;;5093201;28;20952;-79
2023/01/25 01:43:48;;;;;;;0.40;0.40;;;2.20;99.90;;;;;;5093481;28;20456;-80
2023/01/25 01:46:20;;;;;;;1.80;0.77;;;2.20;99.90;;;;;;5093423;28;20464;-80
2023/01/25 01:48:52;;;;;;;0.40;0.40;;;2.20;99.90;;;;;;5093490;28;20468;-80
2023/01/25 01:51:22;;;;;;;0.70;0.70;;;2.20;99.90;;;;;;5093492;28;20437;-80
2023/01/25 01:53:53;;;;;;;1.47;0.40;;;2.20;99.90;;;;;;5093431;28;20811;-79
2023/01/25 01:56:29;;;;;;;1.47;0.93;;;2.10;99.90;;;;;;5093333;28;20472;-80
2023/01/25 01:58:58;;;;;;;0.50;0.50;;;2.20;99.90;;;;;;5093450;28;20795;-80
2023/01/25 02:01:25;;;;;;;0.30;0.27;;;2.10;99.90;;;;;;5093342;28;20448;-79
2023/01/25 02:03:54;;;;;;;0.50;0.50;;;2.10;99.90;;;;;;5093918;28;20448;-79
2023/01/25 02:06:28;;;;;;;2.20;1.27;;;2.10;99.90;;;;;;5093064;28;20484;-80
2023/01/25 02:08:55;;;;;;;0.37;0.30;;;2.10;99.90;;;;;;5092950;28;20998;-79
2023/01/25 02:11:22;;;;;;;0.30;0.30;;;2.20;99.90;;;;;;5093008;28;20800;-80
2023/01/25 02:13:49;;;;;;;0.83;0.83;;;2.20;99.90;;;;;;5093231;28;20423;-79
2023/01/25 02:16:19;;;;;;;5.23;0.90;;;2.20;99.90;;;;;;5093090;28;20510;-79
2023/01/25 02:18:46;;;;;;;0.87;0.60;;;2.20;99.90;;;;;;5093211;28;20421;-79
2023/01/25 02:21:14;;;;;;;0.30;0.30;;;2.20;99.90;;;;;;5093087;28;20452;-79
2023/01/25 02:23:50;;;;;;;1.00;0.60;;;2.20;99.90;;;;;;5093148;28;20445;-80
2023/01/25 02:26:19;;;;;;;7.50;1.03;;;2.20;99.90;;;;;;5093063;28;20467;-80
2023/01/25 02:28:50;;;;;;;1.43;0.40;;;2.10;99.90;;;;;;5093021;28;20487;-80
2023/01/25 02:31:17;;;;;;;0.60;0.60;;;2.10;99.90;;;;;;5092783;28;20441;-80
2023/01/25 02:33:44;;;;;;;0.67;0.67;;;2.10;99.90;;;;;;5093051;28;20451;-80
2023/01/25 02:36:20;;;;;;;0.30;0.30;;;2.10;99.90;;;;;;5092939;28;20468;-80
2023/01/25 02:38:52;;;;;;;0.40;0.40;;;2.10;99.90;;;;;;5093043;28;20437;-80
2023/01/25 02:41:26;;;;;;;0.30;0.30;;;2.10;99.90;;;;;;5092989;28;20461;-80
2023/01/25 02:43:53;;;;;;;0.77;0.77;;;2.10;99.90;;;;;;5092993;28;20424;-80
2023/01/25 02:46:24;;;;;;;0.30;0.30;;;2.10;99.90;;;;;;5092720;28;20975;-79
2023/01/25 02:48:52;;;;;;;0.70;0.63;;;2.10;99.90;;;;;;5096596;28;20468;-80
2023/01/25 02:51:19;;;;;;;0.30;0.30;;;2.10;99.90;;;;;;5096321;28;20478;-80
2023/01/25 02:53:45;;;;;;;0.33;0.33;;;2.10;99.90;;;;;;5096548;28;20812;-80
2023/01/25 02:56:12;;;;;;;0.30;0.27;;;2.10;99.90;;;;;;5096110;28;20472;-80
2023/01/25 02:58:41;;;;;;;1.33;1.03;;;2.10;99.90;;;;;;5096460;28;20449;-79
2023/01/25 03:01:08;;;;;;;3.17;0.57;;;2.10;99.90;;;;;;5096978;28;20455;-79
2023/01/25 03:03:35;;;;;;;0.40;0.40;;;2.10;99.90;;;;;;5096422;28;20429;-80
2023/01/25 03:06:01;;;;;;;2.20;0.80;;;2.20;99.90;;;;;;5095932;28;20992;-80
2023/01/25 03:08:28;;;;;;;0.30;0.30;;;2.20;99.90;;;;;;5095764;28;20478;-80
2023/01/25 03:10:56;;;;;;;0.30;0.30;;;2.20;99.90;;;;;;5096112;28;20440;-80
2023/01/25 03:13:23;;;;;;;2.00;1.27;;;2.10;99.90;;;;;;5095997;28;20526;-80
2023/01/25 03:15:51;;;;;;;2.93;0.93;;;2.10;99.90;;;;;;5095594;28;20481;-80
2023/01/25 03:18:18;;;;;;;0.67;0.67;;;2.10;99.90;;;;;;5096094;28;20445;-79
2023/01/25 03:20:45;;;;;;;1.17;1.03;;;2.10;99.90;;;;;;5096003;28;20445;-80
2023/01/25 03:23:11;;;;;;;0.70;0.70;;;2.10;99.90;;;;;;5096005;28;20448;-80
2023/01/25 03:25:38;;;;;;;1.27;0.97;;;2.10;99.90;;;;;;5095818;28;20478;-79
2023/01/25 03:28:05;;;;;;;2.87;0.90;;;2.10;99.90;;;;;;5095831;28;20484;-80
2023/01/25 03:30:32;;;;;;;0.83;0.37;;;2.10;99.90;;;;;;5095915;28;20433;-79
2023/01/25 03:33:00;;;;;;;1.90;1.00;;;2.10;99.90;;;;;;5095766;28;20456;-79
2023/01/25 03:35:27;;;;;;;1.07;0.60;;;2.10;99.90;;;;;;5095654;28;20480;-79
2023/01/25 03:37:53;;;;;;;0.63;0.50;;;2.00;99.90;;;;;;5095399;28;20960;-80
2023/01/25 03:40:20;;;;;;;1.00;0.50;;;2.10;99.90;;;;;;5095680;28;20444;-79
2023/01/25 03:42:47;;;;;;;0.30;0.30;;;2.20;99.90;;;;;;5095270;28;20452;-80
2023/01/25 03:45:14;;;;;;;5.23;0.80;;;2.10;99.90;;;;;;5095539;28;20464;-80
2023/01/25 03:47:41;;;;;;;1.37;0.60;;;2.20;99.90;;;;;;5095561;28;20456;-79
2023/01/25 03:50:10;;;;;;;0.50;0.50;;;2.10;99.90;;;;;;5095456;28;20480;-79
2023/01/25 03:52:40;;;;;;;0.60;0.60;;;2.10;99.90;;;;;;5095458;28;20448;-80
2023/01/25 03:55:08;;;;;;;0.80;0.80;;;2.10;99.90;;;;;;5095342;28;20465;-80
2023/01/25 03:57:35;;;;;;;3.60;3.30;;;2.20;99.90;;;;;;5095360;28;20853;-80
2023/01/25 04:00:02;;;;;;;3.50;0.87;;;2.10;99.90;;;;;;5094400;28;20774;-80
2023/01/25 04:02:29;;;;;;;0.83;0.83;;;2.20;99.90;;;;;;5095217;28;20447;-80
2023/01/25 04:04:56;;;;;;;0.30;0.30;;;2.10;99.90;;;;;;5095056;28;20551;-79
2023/01/25 04:07:24;;;;;;;0.63;0.63;;;2.10;99.90;;;;;;5094863;28;20970;-80
2023/01/25 04:09:51;;;;;;;0.90;0.70;;;2.20;99.90;;;;;;5094789;28;20483;-80
2023/01/25 04:12:17;;;;;;;0.73;0.73;;;2.20;99.90;;;;;;5095615;28;20779;-80
2023/01/25 04:14:44;;;;;;;0.67;0.67;;;2.20;99.90;;;;;;5094607;28;20479;-80
2023/01/25 04:17:11;;;;;;;0.50;0.50;;;2.20;99.90;;;;;;5094934;28;20449;-80
2023/01/25 04:19:38;;;;;;;0.57;0.40;;;2.20;99.90;;;;;;5094896;28;20535;-79
2023/01/25 04:22:05;;;;;;;1.03;0.70;;;2.20;99.90;;;;;;5094552;28;20933;-80
2023/01/25 04:24:33;;;;;;;3.70;0.70;;;2.20;99.90;;;;;;5094804;28;20445;-79
2023/01/25 04:26:59;;;;;;;1.07;0.93;;;2.10;99.90;;;;;;5094780;28;20452;-80
2023/01/25 04:29:26;;;;;;;1.43;1.33;;;2.20;99.90;;;;;;5094603;28;20483;-80
2023/01/25 04:31:53;;;;;;;0.50;0.50;;;2.20;99.90;;;;;;5094661;28;20452;-80
2023/01/25 04:34:20;;;;;;;0.80;0.77;;;2.20;99.90;;;;;;5094750;28;20452;-79
2023/01/25 04:36:46;;;;;;;0.30;0.30;;;2.20;99.90;;;;;;5094451;28;20464;-80
2023/01/25 04:39:13;;;;;;;0.40;0.40;;;2.20;99.90;;;;;;5094476;28;20441;-79
2023/01/25 04:41:41;;;;;;;1.23;0.97;;;2.30;99.90;;;;;;5094512;28;20451;-79
2023/01/25 04:44:08;;;;;;;1.90;0.73;;;2.30;99.90;;;;;;5094419;28;20799;-80
2023/01/25 04:46:35;;;;;;;0.60;0.60;;;2.20;99.90;;;;;;5094013;28;20468;-80
2023/01/25 04:49:01;;;;;;;0.90;0.40;;;2.20;99.90;;;;;;5094059;28;20473;-79
2023/01/25 04:51:28;;;;;;;0.33;0.30;;;2.10;99.90;;;;;;5094303;28;20522;-80
2023/01/25 04:53:55;;;;;;;0.37;0.37;;;2.10;99.90;;;;;;5094260;28;20456;-80
2023/01/25 04:56:21;;;;;;;1.27;0.93;;;2.00;99.90;;;;;;5093999;28;20841;-80
2023/01/25 04:58:50;;;;;;;0.90;0.90;;;2.00;99.90;;;;;;5094134;28;20449;-80
2023/01/25 05:01:16;;;;;;;0.93;0.93;;;2.00;99.90;;;;;;5093744;28;20948;-80
2023/01/25 05:03:43;;;;;;;0.50;0.50;;;2.10;99.90;;;;;;5093818;28;20436;-80
2023/01/25 05:06:10;;;;;;;0.47;0.47;;;2.10;99.90;;;;;;5094041;28;20479;-80
2023/01/25 05:08:36;;;;;;;1.70;0.80;;;2.10;99.90;;;;;;5093890;28;20487;-80
2023/01/25 05:11:03;;;;;;;0.60;0.60;;;2.10;99.90;;;;;;5092661;28;20803;-80
2023/01/25 05:13:30;;;;;;;0.90;0.67;;;2.00;99.90;;;;;;5093900;28;20449;-80
2023/01/25 05:15:58;;;;;;;0.70;0.70;;;2.10;99.90;;;;;;5093306;28;20988;-80
2023/01/25 05:18:25;;;;;;;0.83;0.67;;;2.10;99.90;;;;;;5093887;28;20437;-80
2023/01/25 05:20:55;;;;;;;0.30;0.30;;;2.00;99.90;;;;;;5093797;28;20452;-78
2023/01/25 05:23:22;;;;;;;0.70;0.70;;;2.00;99.90;;;;;;5093877;28;20433;-78
2023/01/25 05:28:33;;;;;;;0.60;0.60;;;2.00;99.90;;;;;;5093432;28;20401;-77
2023/01/25 05:31:03;;;;;;;2.40;0.73;;;2.00;99.90;;;;;;5093647;28;20459;-78
2023/01/25 05:33:30;;;;;;;0.33;0.27;;;2.10;99.90;;;;;;5093344;28;20803;-78
2023/01/25 05:35:57;;;;;;;0.40;0.30;;;2.10;99.90;;;;;;5093523;28;20464;-78
2023/01/25 05:38:24;;;;;;;1.33;0.60;;;2.00;99.90;;;;;;5093267;28;20964;-79
2023/01/25 05:40:51;;;;;;;0.30;0.30;;;2.00;99.90;;;;;;5093569;28;20448;-78
2023/01/25 05:43:18;;;;;;;1.20;0.90;;;2.00;99.90;;;;;;5093518;28;20808;-79
2023/01/25 05:45:44;;;;;;;0.30;0.30;;;2.00;99.90;;;;;;5093590;28;20468;-78
2023/01/25 05:48:12;;;;;;;0.50;0.50;;;2.10;99.90;;;;;;5093464;28;20448;-78
2023/01/25 05:50:39;;;;;;;0.33;0.27;;;2.00;99.90;;;;;;5093380;28;20483;-78
2023/01/25 05:53:06;;;;;;;2.30;1.13;;;2.10;99.90;;;;;;5093386;28;20452;-79
2023/01/25 05:55:35;;;;;;;3.47;0.60;;;2.10;99.90;;;;;;5093039;28;20467;-78
2023/01/25 05:58:02;;;;;;;1.63;1.23;;;2.10;99.90;;;;;;5093381;28;20449;-79
2023/01/25 06:00:28;;;;;;;0.53;0.50;;;2.10;99.90;;;;;;5093355;28;20444;-78
2023/01/25 06:02:55;;;;;;;0.30;0.20;;;2.10;99.90;;;;;;5093288;28;20444;-79
2023/01/25 06:05:23;;;;;;;0.30;0.30;;;2.10;99.90;;;;;;5092913;28;20976;-79
2023/01/25 06:07:50;;;;;;;0.57;0.57;;;2.10;99.90;;;;;;5092942;28;20979;-79
2023/01/25 06:10:17;;;;;;;0.60;0.60;;;2.00;99.90;;;;;;5093184;28;20487;-79
2023/01/25 06:12:43;;;;;;;0.40;0.40;;;1.90;99.90;;;;;;5093296;28;20449;-79
2023/01/25 06:15:10;;;;;;;0.30;0.20;;;1.90;99.90;;;;;;5092783;28;20484;-80
2023/01/25 06:17:37;;;;;;;0.30;0.30;;;1.90;99.90;;;;;;5093718;28;20452;-79
2023/01/25 06:20:05;;;;;;;0.30;0.20;;;1.90;99.90;;;;;;5093596;28;20449;-80
2023/01/25 06:22:33;;;;;;;0.30;0.20;;;1.90;99.90;;;;;;5095429;28;20486;-80
2023/01/25 06:25:00;;;;;;;0.43;0.43;;;2.00;99.90;;;;;;5097122;28;20479;-80
2023/01/25 06:27:28;;;;;;;1.00;1.00;;;2.00;99.90;;;;;;5097521;28;20479;-80
2023/01/25 06:29:55;;;;;;;0.30;0.30;;;2.00;99.90;;;;;;5097329;28;20492;-79
2023/01/25 06:32:22;;;;;;;0.30;0.30;;;2.00;99.90;;;;;;5096944;28;20444;-80
2023/01/25 06:34:49;;;;;;;1.33;1.23;;;2.00;99.90;;;;;;5096564;28;20936;-80
2023/01/25 06:37:16;;;;;;;1.80;0.80;;;2.00;99.90;;;;;;5096846;28;20448;-80
2023/01/25 06:39:44;;;;;;;0.73;0.73;;;2.10;99.90;;;;;;5096594;28;20932;-80
2023/01/25 06:42:11;;;;;;;0.30;0.20;;;2.00;99.90;;;;;;5096806;28;20441;-80
2023/01/25 06:44:37;;;;;;;0.50;0.50;;;2.00;99.90;;;;;;5096658;28;20452;-80
2023/01/25 06:47:04;;;;;;;0.80;0.57;;;2.10;99.90;;;;;;5096721;28;20448;-80
2023/01/25 06:49:31;;;;;;;0.70;0.60;;;2.00;99.90;;;;;;5096669;28;20477;-80
2023/01/25 06:51:59;;;;;;;1.37;1.37;;;2.00;99.90;;;;;;5096623;28;20452;-80
2023/01/25 06:54:26;;;;;;;0.47;0.40;;;2.00;99.90;;;;;;5096544;28;20456;-80
2023/01/25 06:56:54;;;;;;;1.93;0.60;;;2.00;99.90;;;;;;5096409;28;20495;-80
2023/01/25 06:59:21;;;;;;;0.60;0.60;;;2.00;99.90;;;;;;5096474;28;20444;-80
2023/01/25 07:01:48;;;;;;;0.30;0.30;;;2.00;99.90;;;;;;5096364;28;20448;-80
2023/01/25 07:04:15;;;;;;;0.40;0.40;;;2.00;99.90;;;;;;5096021;28;21069;-80
2023/01/25 07:06:42;;;;;;;1.73;0.60;;;1.90;99.90;;;;;;5095931;28;20465;-80
2023/01/25 07:09:11;;;;;;;0.30;0.30;;;1.80;99.90;;;;;;5096216;28;20487;-80
2023/01/25 07:11:37;;;;;;;0.40;0.30;;;1.90;99.90;;;;;;5096702;28;20440;-80
2023/01/25 07:14:06;;;;;;;0.60;0.60;;;1.90;99.90;;;;;;5096074;28;20500;-79
2023/01/25 07:16:37;;;;;;;0.30;0.20;;;1.90;99.90;;;;;;5095818;28;20976;-80
2023/01/25 07:19:04;;;;;;;0.30;0.30;;;2.00;99.90;;;;;;5095843;28;20433;-80
2023/01/25 07:21:31;;;;;;;0.50;0.50;;;2.00;99.90;;;;;;5095962;28;20441;-80
2023/01/25 07:24:01;;;;;;;0.30;0.20;;;2.00;99.90;;;;;;5095817;28;20979;-80
2023/01/25 07:26:28;;;;;;;1.13;1.13;;;2.00;99.90;;;;;;5096183;28;20501;-80
2023/01/25 07:28:56;;;;;;;0.40;0.30;;;2.00;99.90;;;;;;5096304;28;20471;-80
2023/01/25 07:31:25;;;;;;;0.40;0.40;;;1.90;99.90;;;;;;5096483;28;20451;-80
2023/01/25 07:33:54;;;;;;;0.30;0.20;;;2.00;99.90;;;;;;5095221;28;20444;-80
2023/01/25 07:36:21;;;;;;;2.57;1.63;;;2.10;99.90;;;;;;5095658;28;20967;-80
2023/01/25 07:38:48;;;;;;;1.07;0.50;;;2.10;99.90;;;;;;5096277;28;20456;-80
2023/01/25 07:41:16;;;;;;;0.70;0.70;;;2.10;99.90;;;;;;5096080;28;20441;-80
2023/01/25 07:43:43;;;;;;;1.30;0.40;;;2.00;99.90;;;;;;5096092;28;20451;-80
2023/01/25 07:46:11;;;;;;;0.37;0.37;;;1.90;99.90;;;;;;5095372;28;20475;-80
2023/01/25 07:48:41;;;;;;;1.43;1.33;;;1.90;99.90;;;;;;5095958;28;20441;-79
2023/01/25 07:51:15;;;;;;;0.30;0.20;;;1.90;99.90;;;;;;5096196;28;20999;-80
2023/01/25 07:53:43;;;;;;;0.40;0.30;;;2.00;99.90;;;;;;5098282;28;20529;-80
2023/01/25 07:56:12;;;;;;;1.23;0.47;;;2.00;99.90;;;;;;5098444;28;20572;-80
2023/01/25 07:58:39;;;;;;;0.30;0.30;;;2.10;99.90;;;;;;5095822;28;20445;-80
2023/01/25 08:01:06;;;;;;;1.13;1.13;;;2.10;99.90;;;;;;5095201;28;20983;-80
2023/01/25 08:03:33;;;;;;;1.17;0.63;;;2.10;99.90;;;;;;5095425;28;20998;-80
2023/01/25 08:06:04;;;;;;;0.67;0.37;;;2.20;99.90;;;;;;5095365;28;20465;-80
2023/01/25 08:08:33;;;;;;;0.40;0.40;;;2.10;99.90;;;;;;5095190;28;20464;-80
2023/01/25 08:11:00;;;;;;;1.23;1.13;;;2.10;99.90;;;;;;5095502;28;20480;-80
2023/01/25 08:13:27;;;;;;;0.60;0.60;;;2.10;99.90;;;;;;5095310;28;20444;-80
2023/01/25 08:15:54;;;;;;;0.60;0.50;;;2.10;99.90;;;;;;5094886;28;20484;-80
2023/01/25 08:18:21;;;;;;;3.90;0.93;;;2.20;99.90;;;;;;5095309;28;20449;-80
2023/01/25 08:20:48;;;;;;;1.40;1.30;;;2.30;99.90;;;;;;5094923;28;20441;-80
2023/01/25 08:23:19;;;;;;;1.17;0.93;;;2.30;99.90;;;;;;5095162;28;20502;-80
2023/01/25 08:25:46;;;;;;;4.73;1.03;;;2.30;99.90;;;;;;5095172;28;20874;-80
2023/01/25 08:28:12;;;;;;;1.00;0.83;;;2.20;99.90;;;;;;5095060;28;20453;-80
2023/01/25 08:30:39;;;;;;;0.50;0.40;;;2.10;99.90;;;;;;5094924;28;20483;-80
2023/01/25 08:33:06;;;;;;;0.50;0.50;;;2.00;99.90;;;;;;5094959;28;20452;-80
2023/01/25 08:35:34;;;;;;;1.30;0.73;;;1.90;99.90;;;;;;5094976;28;20475;-80
2023/01/25 08:38:01;;;;;;;0.50;0.50;;;2.00;99.90;;;;;;5094852;28;20513;-80
2023/01/25 08:40:29;;;;;;;2.50;0.60;;;2.00;99.90;;;;;;5095012;28;20443;-80
2023/01/25 08:42:57;;;;;;;0.60;0.60;;;2.00;99.90;;;;;;5095058;28;20429;-80
2023/01/25 08:45:23;;;;;;;3.37;0.50;;;2.10;99.90;;;;;;5094528;28;20491;-80
2023/01/25 08:47:50;;;;;;;0.63;0.63;;;2.10;99.90;;;;;;5094649;28;20462;-80
2023/01/25 08:50:17;;;;;;;0.40;0.40;;;2.10;99.90;;;;;;5094485;28;20484;-80
2023/01/25 08:52:44;;;;;;;0.30;0.30;;;2.10;99.90;;;;;;5094064;28;20459;-79
2023/01/25 08:55:10;;;;;;;0.30;0.30;;;2.10;99.90;;;;;;5093934;28;20469;-79
2023/01/25 08:57:38;;;;;;;0.30;0.30;;;2.10;99.90;;;;;;5094133;28;20963;-79
2023/01/25 09:00:06;;;;;;;0.50;0.50;;;2.10;99.90;;;;;;5094375;28;20448;-79
2023/01/25 09:02:33;;;;;;;0.30;0.30;;;2.20;99.90;;;;;;5094338;28;20532;-80
2023/01/25 09:05:00;;;;;;;0.67;0.67;;;2.10;99.90;;;;;;5093998;28;21003;-80
2023/01/25 09:07:27;;;;;;;1.37;1.00;;;2.20;99.90;;;;;;5094194;28;20458;-80
2023/01/25 09:09:53;;;;;;;0.80;0.80;;;2.20;99.90;;;;;;5094088;28;20485;-80
2023/01/25 09:12:20;;;;;;;1.17;1.10;;;2.20;99.90;;;;;;5093950;28;20551;-80
2023/01/25 09:14:49;;;;;;;0.70;0.63;;;2.30;99.90;;;;;;5093598;28;20488;-80
2023/01/25 09:17:15;;;;;;;0.70;0.70;;;2.30;99.90;;;;;;5093927;28;20445;-80
2023/01/25 09:19:42;;;;;;;0.40;0.30;;;2.30;99.90;;;;;;5093643;28;20928;-80
2023/01/25 09:22:09;;;;;;;0.30;0.20;;;2.20;99.90;;;;;;5093585;28;20454;-80
2023/01/25 09:24:36;;;;;;;0.40;0.40;;;2.30;99.90;;;;;;5093697;28;20451;-80
2023/01/25 09:27:02;;;;;;;1.03;0.93;;;2.30;99.90;;;;;;5093797;28;20441;-80
2023/01/25 09:29:29;;;;;;;0.30;0.30;;;2.40;99.90;;;;;;5093650;28;20451;-80
2023/01/25 09:31:57;;;;;;;2.50;0.43;;;2.40;99.90;;;;;;5093217;28;21009;-80
2023/01/25 09:34:24;;;;;;;0.40;0.40;;;2.40;99.90;;;;;;5093727;28;20456;-79
2023/01/25 09:36:51;;;;;;;0.83;0.77;;;2.40;99.90;;;;;;5093511;28;20476;-80
2023/01/25 09:39:18;;;;;;;1.07;0.50;;;2.40;99.90;;;;;;5093531;28;20448;-80
2023/01/25 09:42:11;;;;;;;1.57;1.17;;;2.40;99.90;;;;;;5093227;28;20448;-80
2023/01/25 09:45:03;;;;;;;0.30;0.30;;;2.40;99.90;;;;;;5093544;28;20433;-80
2023/01/25 09:47:39;;;;;;;0.50;0.50;;;2.40;99.90;;;;;;5093055;28;20449;-80
2023/01/25 09:50:35;;;;;;;0.30;0.30;;;2.40;99.90;;;;;;5093466;28;20475;-80
2023/01/25 09:53:23;;;;;;;1.53;0.90;;;2.20;99.90;;;;;;5093635;28;20452;-80
2023/01/25 09:55:57;;;;;;;2.93;0.40;;;2.20;99.90;;;;;;5093534;28;20546;-80
2023/01/25 09:58:31;;;;;;;1.37;0.50;;;2.30;99.90;;;;;;5097237;28;20435;-80
2023/01/25 10:01:17;;;;;;;1.17;1.10;;;2.30;99.90;;;;;;5097707;28;20408;-80
2023/01/25 10:03:52;;;;;;;0.93;0.63;;;2.30;99.90;;;;;;5097369;28;20429;-80
2023/01/25 10:06:22;;;;;;;0.40;0.40;;;2.30;99.90;;;;;;5097195;28;20966;-79
2023/01/25 10:08:56;;;;;;;0.40;0.40;;;2.30;99.90;;;;;;5097492;28;20519;-80
2023/01/25 10:11:26;;;;;;;0.30;0.30;;;2.30;99.90;;;;;;5097363;28;20471;-79
2023/01/25 10:13:54;;;;;;;0.30;0.30;;;2.20;99.90;;;;;;5096968;28;20432;-80
2023/01/25 10:16:25;;;;;;;2.10;0.53;;;2.30;99.90;;;;;;5097275;28;20472;-80
2023/01/25 10:19:07;;;;;;;0.80;0.80;;;2.30;99.90;;;;;;5097051;28;20413;-79
2023/01/25 10:21:38;;;;;;;0.43;0.43;;;2.20;99.90;;;;;;5097277;28;20429;-79
2023/01/25 10:24:23;;;;;;;0.30;0.30;;;2.20;99.90;;;;;;5096924;28;20433;-80
2023/01/25 10:26:55;;;;;;;0.40;0.40;;;2.20;99.90;;;;;;5097102;28;20468;-79
2023/01/25 10:29:26;;;;;;;2.30;2.10;;;2.20;99.90;;;;;;5096812;28;20440;-81
2023/01/25 10:31:55;;;;;;;0.90;0.70;;;2.30;99.90;;;;;;5096975;28;20464;-79
2023/01/25 10:34:27;;;;;;;0.60;0.60;;;2.30;99.90;;;;;;5096793;28;20433;-80
2023/01/25 10:36:56;;;;;;;0.80;0.80;;;2.30;99.90;;;;;;5096849;28;20479;-79
2023/01/25 10:39:23;;;;;;;0.90;0.90;;;2.30;99.90;;;;;;5096901;28;20498;-80
2023/01/25 10:41:54;;;;;;;0.70;0.50;;;2.20;99.90;;;;;;5096918;28;20455;-79
2023/01/25 10:44:23;;;;;;;0.60;0.60;;;2.20;99.90;;;;;;5096854;28;20440;-80
2023/01/25 10:46:55;;;;;;;0.80;0.80;;;2.30;99.90;;;;;;5096607;28;20537;-79
2023/01/25 10:49:28;;;;;;;0.30;0.30;;;2.40;99.90;;;;;;5096689;28;20432;-79
2023/01/25 10:51:56;;;;;;;0.30;0.30;;;2.40;99.90;;;;;;5096609;28;20878;-79
2023/01/25 10:54:23;;;;;;;2.10;0.53;;;2.40;99.90;;;;;;5096324;28;20487;-79
2023/01/25 10:56:50;;;;;;;1.93;0.77;;;2.40;99.90;;;;;;5096156;28;20500;-80
2023/01/25 10:59:24;;;;;;;3.33;1.20;;;2.40;99.90;;;;;;5096508;28;20816;-80
2023/01/25 11:01:51;;;;;;;0.40;0.30;;;2.40;99.90;;;;;;5096783;28;20773;-80
2023/01/25 11:04:29;;;;;;;0.30;0.30;;;2.50;99.90;;;;;;5096441;28;20452;-79
2023/01/25 11:06:56;;;;;;;0.30;0.30;;;2.50;99.90;;;;;;5096362;28;20463;-80
2023/01/25 11:09:38;;;;;;;0.30;0.30;;;2.50;99.90;;;;;;5096281;28;20449;-80
2023/01/25 11:12:16;;;;;;;0.87;0.50;;;2.40;99.90;;;;;;5096202;28;20495;-80
2023/01/25 11:14:43;;;;;;;1.13;0.30;;;2.40;99.90;;;;;;5095899;28;20520;-80
2023/01/25 11:17:23;;;;;;;1.50;0.73;;;2.40;99.90;;;;;;5096169;28;20452;-80
2023/01/25 11:20:06;;;;;;;0.57;0.57;;;2.50;99.90;;;;;;5096034;28;20452;-80
2023/01/25 11:22:33;;;;;;;2.13;0.80;;;2.40;99.90;;;;;;5096122;28;20433;-80
2023/01/25 11:25:24;;;;;;;0.90;0.50;;;2.40;99.90;;;;;;5095996;28;20496;-80
2023/01/25 11:27:51;;;;;;;0.30;0.30;;;2.40;99.90;;;;;;5095696;28;20938;-80
2023/01/25 11:30:19;;;;;;;0.50;0.40;;;2.30;99.90;;;;;;5095541;28;20978;-80
2023/01/25 11:32:46;;;;;;;0.50;0.50;;;2.30;99.90;;;;;;5096141;28;20455;-80
2023/01/25 11:35:15;;;;;;;0.30;0.30;;;2.30;99.90;;;;;;5095756;28;20465;-80
2023/01/25 11:37:56;;;;;;;5.30;1.07;;;2.30;99.90;;;;;;5095775;28;20464;-80
2023/01/25 11:40:33;;;;;;;1.27;1.27;;;2.30;99.90;;;;;;5095475;28;20429;-80
2023/01/25 11:43:16;;;;;;;0.40;0.30;;;2.30;99.90;;;;;;5095435;28;20441;-81
2023/01/25 11:46:12;;;;;;;5.50;0.60;;;2.20;99.90;;;;;;5095581;28;20473;-80
2023/01/25 11:48:56;;;;;;;1.00;0.97;;;2.20;99.90;;;;;;5095601;28;20479;-80
2023/01/25 11:51:29;;;;;;;0.40;0.40;;;2.10;99.90;;;;;;5095480;28;20468;-81
2023/01/25 11:54:27;;;;;;;0.40;0.40;;;2.20;99.90;;;;;;5095507;28;20433;-80
2023/01/25 11:56:59;;;;;;;0.40;0.40;;;2.20;99.90;;;;;;5095081;28;20479;-80
2023/01/25 11:59:50;;;;;;;0.50;0.50;;;2.20;99.90;;;;;;5095440;28;20425;-80
2023/01/25 12:02:47;;;;;;;1.47;0.50;;;2.20;99.90;;;;;;5095297;28;20532;-80
2023/01/25 12:05:28;;;;;;;0.60;0.40;;;2.20;99.90;;;;;;5095231;28;20472;-80
2023/01/25 12:08:12;;;;;;;0.30;0.30;;;2.20;99.90;;;;;;5095262;28;20456;-80
2023/01/25 12:10:46;;;;;;;0.47;0.30;;;2.30;99.90;;;;;;5094780;28;20437;-80
2023/01/25 12:13:24;;;;;;;0.30;0.30;;;2.40;99.90;;;;;;5094847;28;20433;-80
2023/01/25 12:16:09;;;;;;;1.07;0.97;;;2.30;99.90;;;;;;5094512;28;20476;-80
2023/01/25 12:19:01;;;;;;;0.93;0.93;;;2.30;99.90;;;;;;5095102;28;20429;-80
2023/01/25 12:21:42;;;;;;;1.90;0.70;;;2.30;99.90;;;;;;5086022;28;20445;-80
2023/01/25 12:24:21;;;;;;;0.57;0.57;;;2.20;99.90;;;;;;5094974;28;20420;-80
2023/01/25 12:26:59;;;;;;;0.97;0.70;;;2.20;99.90;;;;;;5094835;28;20800;-80
2023/01/25 12:29:32;;;;;;;1.47;1.37;;;2.20;99.90;;;;;;5094568;28;20873;-80
2023/01/25 12:32:07;;;;;;;0.50;0.50;;;2.30;99.90;;;;;;5094945;28;20476;-79
2023/01/25 12:34:36;;;;;;;0.50;0.40;;;2.30;99.90;;;;;;5094689;28;20440;-80
2023/01/25 12:37:13;;;;;;;0.37;0.30;;;2.30;99.90;;;;;;5094576;28;20522;-80
2023/01/25 12:39:45;;;;;;;1.33;0.63;;;2.30;99.90;;;;;;5094578;28;20433;-81
2023/01/25 12:42:17;;;;;;;0.40;0.30;;;2.40;99.90;;;;;;5094582;28;20432;-80
2023/01/25 12:44:47;;;;;;;2.33;0.60;;;2.40;99.90;;;;;;5094448;28;20417;-80
2023/01/25 12:47:20;;;;;;;0.30;0.30;;;2.40;99.90;;;;;;5094358;28;20448;-80
2023/01/25 12:49:50;;;;;;;0.40;0.40;;;2.40;99.90;;;;;;5094462;28;20436;-80
2023/01/25 12:52:23;;;;;;;0.73;0.73;;;2.40;99.90;;;;;;5094375;28;20571;-80
2023/01/25 12:54:52;;;;;;;3.57;2.07;;;2.40;99.90;;;;;;5093916;28;20924;-80
2023/01/25 12:57:26;;;;;;;0.90;0.67;;;2.50;99.90;;;;;;5094230;28;20455;-80
2023/01/25 13:00:01;;;;;;;1.27;0.60;;;2.50;99.90;;;;;;5094257;28;20432;-80
2023/01/25 13:02:43;;;;;;;3.87;1.20;;;2.50;99.90;;;;;;5094353;28;20421;-80
2023/01/25 13:05:22;;;;;;;0.50;0.50;;;2.60;99.90;;;;;;5093709;28;20476;-80
2023/01/25 13:07:55;;;;;;;4.10;0.80;;;2.60;99.90;;;;;;5094114;28;20413;-80
2023/01/25 13:10:26;;;;;;;0.30;0.30;;;2.50;99.90;;;;;;5093787;28;20939;-81
2023/01/25 13:12:55;;;;;;;0.43;0.43;;;2.40;99.90;;;;;;5093964;28;20546;-81